F/V Armandeche — FGLQ — position and weather

sailwx.info

Track history (hours):
 
Tides and Currents Weather Stations Pressure Air Temp Water Temp Dewpoint Dewpoint Depression Visibility Wind Speed Wind Dir Waves Ship Positions

F/V Armandeche

Last reported at 2017-Nov-18 06:26 UTC. Time now 2017-Nov-18 06:49 UTC.
Position N 46°18' W 001°59'.

Length 18 m.

Type: Fishing. MMSI: 228184000.

Date/timePositionNaut miles runAvg speedWind from/ knotsBaromVisibWave heightAir tempDewpointWater temp
2017-Nov-18 06:26N 46°18' W 001°59'0 0.6
2017-Nov-18 05:43N 46°19' W 001°59'1 3.5
2017-Nov-18 05:27N 46°20' W 002°00'1 2.0
2017-Nov-18 04:51N 46°19' W 001°59'1 0.8
2017-Nov-18 04:02N 46°19' W 001°59'1 3.6
2017-Nov-18 03:49N 46°20' W 001°60'1 2.7
2017-Nov-18 03:27N 46°19' W 001°59'2 2.2
2017-Nov-18 02:29N 46°17' W 001°58'3 2.2
2017-Nov-18 01:10N 46°19' W 002°01'0 0.0
2017-Nov-18 00:56N 46°19' W 002°01'0 0.0
2017-Nov-18 00:14N 46°19' W 002°01'0 0.0
2017-Nov-17 23:53N 46°19' W 002°01'0 0.0
2017-Nov-17 23:30N 46°19' W 002°01'0 0.0
2017-Nov-17 22:10N 46°19' W 002°01'0 0.0
2017-Nov-17 22:00N 46°19' W 002°01'0 0.0
2017-Nov-17 21:20N 46°19' W 002°01'0 0.0
2017-Nov-17 20:58N 46°19' W 002°01'0 0.0
2017-Nov-17 16:09N 46°19' W 002°01'0 0.1
2017-Nov-17 15:59N 46°19' W 002°01'0 0.3
2017-Nov-17 14:46N 46°19' W 002°00'1 0.8
2017-Nov-17 13:46N 46°20' W 002°01'1 1.2
2017-Nov-17 13:20N 46°20' W 002°01'2 5.0
2017-Nov-17 12:54N 46°18' W 001°59'1 2.7
2017-Nov-17 12:28N 46°19' W 001°59'2 1.3
2017-Nov-17 11:11N 46°18' W 001°58'0 2.4
2017-Nov-17 10:59N 46°18' W 001°58'1 2.3
2017-Nov-17 10:30N 46°19' W 001°59'2 3.2
2017-Nov-17 09:58N 46°18' W 001°58'2 3.2
2017-Nov-17 09:24N 46°19' W 001°59'1 1.8
2017-Nov-17 09:00N 46°19' W 001°59'1 1.1
2017-Nov-17 08:27N 46°18' W 001°59'1 2.2
2017-Nov-17 08:00N 46°19' W 001°60'1 2.6
2017-Nov-17 07:30N 46°18' W 001°59'1 2.6
2017-Nov-17 07:00N 46°19' W 002°00'1 2.4
2017-Nov-17 06:31N 46°18' W 001°60'4 9.0
2017-Nov-17 06:00N 46°15' W 001°54'5 9.4
2017-Nov-17 05:30N 46°14' W 001°47'1 2.3
2017-Nov-17 04:59N 46°13' W 001°49'1 2.6
2017-Nov-17 04:30N 46°14' W 001°47'1 1.1
2017-Nov-17 04:00N 46°13' W 001°48'0 0.9
2017-Nov-17 03:30N 46°14' W 001°47'0 0.0
2017-Nov-17 03:00N 46°14' W 001°47'0 0.0
2017-Nov-17 02:30N 46°14' W 001°47'0 0.1
2017-Nov-17 02:00N 46°14' W 001°47'0 0.1
2017-Nov-17 01:30N 46°14' W 001°47'0 0.0
2017-Nov-17 01:00N 46°14' W 001°47'0 0.0
2017-Nov-17 00:30N 46°14' W 001°47'0 0.2
2017-Nov-17 00:00N 46°14' W 001°47'0 0.1
2017-Nov-16 23:30N 46°14' W 001°47'0 0.0
2017-Nov-16 23:00N 46°14' W 001°47'0 0.1
2017-Nov-16 22:30N 46°14' W 001°47'0 0.0
2017-Nov-16 22:00N 46°14' W 001°47'0 0.0
2017-Nov-16 21:31N 46°14' W 001°47'0 0.0
2017-Nov-16 21:00N 46°14' W 001°47'0 0.1
2017-Nov-16 20:23N 46°14' W 001°47'0 0.0
2017-Nov-16 19:59N 46°14' W 001°47'0 0.0
2017-Nov-16 19:30N 46°14' W 001°47'0 0.1
2017-Nov-16 19:00N 46°14' W 001°47'0 0.1
2017-Nov-16 18:30N 46°14' W 001°47'0 0.1
2017-Nov-16 17:25N 46°13' W 001°47'0 0.0
2017-Nov-16 16:58N 46°13' W 001°47'0 0.0
2017-Nov-16 16:30N 46°13' W 001°47'0 0.1
2017-Nov-16 15:59N 46°13' W 001°47'0 0.3
2017-Nov-16 15:28N 46°14' W 001°47'1 2.0
2017-Nov-16 15:00N 46°13' W 001°48'1 2.3
2017-Nov-16 14:30N 46°14' W 001°50'4 5.6
2017-Nov-16 13:48N 46°16' W 001°54'1 2.0
2017-Nov-16 13:30N 46°16' W 001°54'1 2.2
2017-Nov-16 12:56N 46°16' W 001°55'1 1.6
2017-Nov-16 12:08N 46°15' W 001°54'0 1.8
2017-Nov-16 12:00N 46°15' W 001°54'4 8.2
2017-Nov-16 11:29N 46°17' W 001°59'2 2.4
2017-Nov-16 10:50N 46°19' W 001°60'1 1.0
2017-Nov-16 10:17N 46°19' W 001°60'2 4.0
2017-Nov-16 09:53N 46°18' W 001°58'1 1.3
2017-Nov-16 09:29N 46°18' W 001°58'2 3.4
2017-Nov-16 08:57N 46°19' W 002°00'1 1.5
2017-Nov-16 08:08N 46°18' W 001°59'1 2.7
2017-Nov-16 07:50N 46°19' W 001°59'1 3.1
2017-Nov-16 07:30N 46°20' W 002°00'2 3.0
2017-Nov-16 06:59N 46°18' W 001°59'1 1.9
2017-Nov-16 06:24N 46°19' W 001°59'0 0.5
2017-Nov-16 05:59N 46°19' W 001°59'1 1.8
2017-Nov-16 05:28N 46°18' W 001°58'2 3.2
2017-Nov-16 05:00N 46°20' W 001°59'2 2.6
2017-Nov-16 04:23N 46°18' W 001°58'1 1.4
2017-Nov-16 03:54N 46°18' W 001°59'0 0.1
2017-Nov-16 03:30N 46°18' W 001°59'0 0.0
2017-Nov-16 03:00N 46°18' W 001°59'0 0.0
2017-Nov-16 02:28N 46°18' W 001°59'0 0.0
2017-Nov-16 01:59N 46°18' W 001°59'0 0.0
2017-Nov-16 01:30N 46°18' W 001°59'0 0.0
2017-Nov-16 01:00N 46°18' W 001°59'0 0.0
2017-Nov-16 00:30N 46°18' W 001°59'0 0.0
2017-Nov-16 00:00N 46°18' W 001°59'0 0.0
2017-Nov-15 23:16N 46°18' W 001°59'0 0.0
2017-Nov-15 23:00N 46°18' W 001°59'0 0.0
2017-Nov-15 22:30N 46°18' W 001°59'0 0.0
2017-Nov-15 21:58N 46°18' W 001°59'0 0.0
2017-Nov-15 21:30N 46°18' W 001°59'0 0.0
2017-Nov-15 20:50N 46°18' W 001°59'0 0.0
2017-Nov-15 20:30N 46°18' W 001°59'0 0.0
2017-Nov-15 19:45N 46°18' W 001°59'0 0.1
2017-Nov-15 19:26N 46°18' W 001°59'0 0.0
2017-Nov-15 19:00N 46°18' W 001°59'0 0.0
2017-Nov-15 18:29N 46°18' W 001°59'2 2.1
2017-Nov-15 17:41N 46°19' W 001°57'310.7
2017-Nov-15 17:27N 46°21' W 001°55'510.7
2017-Nov-15 17:00N 46°25' W 001°51'510.1
2017-Nov-15 16:30N 46°29' W 001°47'1 1.4
2017-Nov-15 16:00N 46°30' W 001°47'1 2.1
2017-Nov-15 15:30N 46°29' W 001°48'510.1
2017-Nov-15 15:00N 46°24' W 001°50'510.1
2017-Nov-15 14:30N 46°20' W 001°53'5 8.1
2017-Nov-15 13:54N 46°15' W 001°54'2 1.4
2017-Nov-15 12:49N 46°15' W 001°56'1 2.0
2017-Nov-15 12:29N 46°15' W 001°57'2 1.8
2017-Nov-15 11:29N 46°16' W 001°59'2 3.5
2017-Nov-15 10:52N 46°18' W 001°59'1 1.5
2017-Nov-15 10:26N 46°18' W 001°58'0 0.6
2017-Nov-15 09:57N 46°18' W 001°59'1 1.3
2017-Nov-15 09:29N 46°19' W 001°59'1 2.5
2017-Nov-15 08:59N 46°18' W 001°59'1 2.7
2017-Nov-15 08:30N 46°19' W 002°00'1 1.9
2017-Nov-15 08:00N 46°18' W 001°60'1 1.8
2017-Nov-15 07:21N 46°19' W 002°00'1 2.3
2017-Nov-15 07:00N 46°18' W 001°59'0 0.6
2017-Nov-15 06:26N 46°19' W 001°59'1 1.7
2017-Nov-15 06:00N 46°20' W 001°60'1 1.7
2017-Nov-15 05:23N 46°19' W 001°59'1 3.4
2017-Nov-15 05:00N 46°20' W 001°60'1 2.0
2017-Nov-15 04:29N 46°19' W 001°59'1 3.1
2017-Nov-15 04:00N 46°18' W 001°58'0 0.7
2017-Nov-15 03:28N 46°17' W 001°57'0 0.0
2017-Nov-15 03:00N 46°17' W 001°57'0 0.1
2017-Nov-15 02:25N 46°17' W 001°57'0 0.0
2017-Nov-15 00:19N 46°17' W 001°57'0 0.0
2017-Nov-14 23:50N 46°17' W 001°57'0 0.0
2017-Nov-14 23:30N 46°17' W 001°57'0 0.0
2017-Nov-14 22:42N 46°17' W 001°57'0 0.3
2017-Nov-14 22:30N 46°17' W 001°57'0 0.1
2017-Nov-14 21:59N 46°17' W 001°57'0 0.1
2017-Nov-14 21:28N 46°17' W 001°57'0 0.1
2017-Nov-14 21:00N 46°17' W 001°57'0 0.1
2017-Nov-14 20:30N 46°18' W 001°57'0 0.2
2017-Nov-14 19:56N 46°18' W 001°57'1 0.9
2017-Nov-14 18:56N 46°17' W 001°56'410.3
2017-Nov-14 18:30N 46°21' W 001°54'510.5
2017-Nov-14 18:00N 46°26' W 001°50'4 8.8
2017-Nov-14 17:30N 46°30' W 001°48'0 0.7
2017-Nov-14 17:00N 46°30' W 001°47'4 8.4
2017-Nov-14 16:30N 46°26' W 001°49'5 9.4
2017-Nov-14 16:00N 46°22' W 001°52'3 4.7
2017-Nov-14 15:25N 46°19' W 001°54'1 1.1
2017-Nov-14 14:56N 46°19' W 001°53'1 1.2
2017-Nov-14 14:30N 46°18' W 001°53'0 0.8
2017-Nov-14 14:00N 46°18' W 001°53'1 0.9
2017-Nov-14 13:26N 46°17' W 001°52'0 0.9
2017-Nov-14 12:59N 46°17' W 001°52'1 2.4
2017-Nov-14 12:30N 46°17' W 001°54'4 4.8
2017-Nov-14 11:41N 46°18' W 001°59'1 4.7
2017-Nov-14 11:26N 46°19' W 001°60'1 1.8
2017-Nov-14 10:58N 46°20' W 001°60'0 0.6
2017-Nov-14 10:29N 46°20' W 001°60'2 3.8
2017-Nov-14 10:00N 46°18' W 001°58'2 3.0
2017-Nov-14 09:30N 46°19' W 001°60'2 2.7
2017-Nov-14 08:56N 46°20' W 002°02'2 3.3
2017-Nov-14 08:20N 46°18' W 002°00'1 1.3
2017-Nov-14 07:47N 46°18' W 001°60'1 3.0
2017-Nov-14 07:24N 46°19' W 002°01'1 3.1
2017-Nov-14 06:58N 46°20' W 002°01'1 3.1
2017-Nov-14 06:29N 46°19' W 002°00'1 2.2
2017-Nov-14 05:56N 46°18' W 001°59'2 2.6
2017-Nov-14 05:20N 46°16' W 001°58'1 2.6
2017-Nov-14 04:53N 46°15' W 001°57'1 1.7
2017-Nov-14 04:13N 46°16' W 001°58'1 1.8
2017-Nov-14 03:51N 46°17' W 001°58'1 2.5
2017-Nov-14 03:20N 46°18' W 001°59'1 2.3
2017-Nov-14 03:00N 46°19' W 001°60'0 0.4
2017-Nov-14 02:27N 46°19' W 001°60'0 0.1
2017-Nov-14 02:00N 46°19' W 001°60'0 0.1
2017-Nov-14 01:29N 46°18' W 001°60'0 0.0
2017-Nov-13 23:20N 46°18' W 001°60'0 0.0
2017-Nov-13 22:47N 46°18' W 001°60'0 0.0
2017-Nov-13 22:27N 46°18' W 001°60'0 0.0
2017-Nov-13 22:00N 46°19' W 001°60'14 0.7
2017-Nov-13 02:00N 46°30' W 001°47'0 0.0
2017-Nov-13 01:30N 46°30' W 001°47'0 0.0
2017-Nov-13 01:00N 46°30' W 001°47'0 0.0
2017-Nov-13 00:30N 46°30' W 001°47'0 0.0
2017-Nov-13 00:00N 46°30' W 001°47'0 0.0
2017-Nov-12 23:30N 46°30' W 001°47'0 0.0
2017-Nov-12 23:00N 46°30' W 001°47'0 0.0
2017-Nov-12 22:30N 46°30' W 001°47'0 0.0
2017-Nov-12 22:00N 46°30' W 001°47'0 0.0
2017-Nov-12 21:30N 46°30' W 001°47'0 0.0
2017-Nov-12 21:00N 46°30' W 001°47'0 0.0
2017-Nov-12 20:30N 46°30' W 001°47'0 0.0
2017-Nov-12 20:00N 46°30' W 001°47'0 0.0
2017-Nov-12 19:30N 46°30' W 001°47'0 0.0
2017-Nov-12 19:00N 46°30' W 001°47'0 0.0
2017-Nov-12 18:30N 46°30' W 001°47'0 0.2
2017-Nov-12 18:00N 46°30' W 001°47'0 0.0
2017-Nov-12 17:30N 46°30' W 001°47'3 6.6
2017-Nov-12 17:00N 46°27' W 001°49'5 9.8
2017-Nov-12 16:30N 46°23' W 001°52'3 5.0
2017-Nov-12 16:00N 46°21' W 001°55'1 2.0
2017-Nov-12 15:30N 46°22' W 001°56'1 2.7
2017-Nov-12 14:59N 46°20' W 001°55'0 0.3
2017-Nov-12 14:30N 46°20' W 001°55'0 0.6
2017-Nov-12 14:00N 46°20' W 001°54'1 1.3
2017-Nov-12 13:30N 46°19' W 001°54'4 7.2
2017-Nov-12 12:55N 46°19' W 001°60'1 3.4
2017-Nov-12 12:29N 46°20' W 002°01'1 0.8
2017-Nov-12 11:11N 46°19' W 002°01'1 4.5
2017-Nov-12 10:55N 46°20' W 002°02'1 1.3
2017-Nov-12 10:30N 46°20' W 002°01'1 1.1
2017-Nov-12 10:01N 46°20' W 002°01'1 1.2
2017-Nov-12 09:30N 46°21' W 002°01'1 2.0
2017-Nov-12 09:00N 46°20' W 001°60'1 1.2
2017-Nov-12 08:30N 46°19' W 001°60'1 1.6
2017-Nov-12 07:59N 46°20' W 001°60'1 1.9
2017-Nov-12 07:30N 46°21' W 002°00'1 2.0
2017-Nov-12 06:59N 46°20' W 001°60'1 1.7
2017-Nov-12 06:28N 46°19' W 001°59'1 2.1
2017-Nov-12 06:00N 46°19' W 001°58'1 1.2
2017-Nov-12 05:30N 46°19' W 001°59'1 1.6
2017-Nov-12 04:59N 46°20' W 001°59'1 1.9
2017-Nov-12 04:30N 46°21' W 001°60'1 1.4
2017-Nov-12 03:58N 46°20' W 001°59'1 2.2
2017-Nov-12 03:30N 46°19' W 001°58'1 1.1
2017-Nov-12 03:00N 46°20' W 001°59'1 2.4
2017-Nov-12 02:28N 46°21' W 001°59'1 1.3
2017-Nov-12 01:57N 46°20' W 001°59'2 3.1
2017-Nov-12 01:19N 46°22' W 001°57'310.0
2017-Nov-12 01:00N 46°24' W 001°54'510.0
2017-Nov-12 00:30N 46°27' W 001°49'3 5.1
2017-Nov-12 00:01N 46°30' W 001°47'0 0.0
2017-Nov-11 23:30N 46°30' W 001°47'0 0.0
2017-Nov-11 23:00N 46°30' W 001°47'0 0.0
2017-Nov-11 22:30N 46°30' W 001°47'0 0.0
2017-Nov-11 22:00N 46°30' W 001°47'0 0.0
2017-Nov-11 21:30N 46°30' W 001°47'0 0.0
2017-Nov-11 21:00N 46°30' W 001°47'0 0.0
2017-Nov-11 20:30N 46°30' W 001°47'0 0.0
2017-Nov-11 20:00N 46°30' W 001°47'0 0.0
2017-Nov-11 19:30N 46°30' W 001°47'0 0.0
2017-Nov-11 19:00N 46°30' W 001°47'0 0.0
2017-Nov-11 18:30N 46°30' W 001°47'0 0.0
2017-Nov-11 18:00N 46°30' W 001°47'0 0.0
2017-Nov-11 17:30N 46°30' W 001°47'0 0.0
2017-Nov-11 17:00N 46°30' W 001°47'0 0.0
2017-Nov-11 16:30N 46°30' W 001°47'0 0.0
2017-Nov-11 16:00N 46°30' W 001°47'0 0.0
2017-Nov-11 15:30N 46°30' W 001°47'0 0.0
2017-Nov-11 15:00N 46°30' W 001°47'0 0.0
2017-Nov-11 14:30N 46°30' W 001°47'1 2.9
2017-Nov-11 14:00N 46°28' W 001°47'510.1
2017-Nov-11 13:30N 46°25' W 001°52'4 7.8
2017-Nov-11 12:59N 46°21' W 001°55'2 4.3
2017-Nov-11 12:30N 46°19' W 001°53'0 0.6
2017-Nov-11 12:00N 46°19' W 001°53'1 1.1
2017-Nov-11 11:30N 46°19' W 001°53'1 2.0
2017-Nov-11 11:00N 46°18' W 001°52'1 1.8
2017-Nov-11 10:28N 46°17' W 001°52'510.4
2017-Nov-11 09:59N 46°19' W 001°58'2 3.1
2017-Nov-11 09:30N 46°20' W 002°00'0 0.7
2017-Nov-11 08:59N 46°20' W 001°60'0 1.0
2017-Nov-11 08:30N 46°20' W 001°59'1 2.1
2017-Nov-11 08:00N 46°19' W 001°59'1 2.6
2017-Nov-11 07:30N 46°18' W 001°58'1 2.2
2017-Nov-11 07:01N 46°18' W 001°59'1 2.1
2017-Nov-11 06:28N 46°19' W 001°60'1 2.0
2017-Nov-11 06:00N 46°19' W 001°59'1 1.2
2017-Nov-11 05:24N 46°19' W 001°58'1 2.0
2017-Nov-11 04:55N 46°20' W 001°59'1 2.2
2017-Nov-11 04:29N 46°20' W 001°60'1 2.7
2017-Nov-11 04:00N 46°19' W 001°59'1 1.5
2017-Nov-11 03:24N 46°18' W 001°58'1 2.7
2017-Nov-11 03:00N 46°19' W 001°59'0 0.5
2017-Nov-11 02:31N 46°19' W 001°58'1 2.0
2017-Nov-11 01:58N 46°18' W 001°57'2 3.3
2017-Nov-11 01:30N 46°20' W 001°58'0 0.7
2017-Nov-11 01:00N 46°20' W 001°58'0 0.0
2017-Nov-11 00:29N 46°20' W 001°58'0 0.0
2017-Nov-10 23:59N 46°20' W 001°58'0 0.0
2017-Nov-10 23:30N 46°20' W 001°58'0 0.0
2017-Nov-10 22:59N 46°20' W 001°58'0 0.0
2017-Nov-10 22:30N 46°20' W 001°58'0 0.0
2017-Nov-10 22:00N 46°20' W 001°58'0 0.0
2017-Nov-10 21:30N 46°20' W 001°58'0 0.1
2017-Nov-10 21:00N 46°20' W 001°58'0 0.0
2017-Nov-10 20:30N 46°20' W 001°58'0 0.0
2017-Nov-10 20:00N 46°20' W 001°58'0 0.0
2017-Nov-10 19:30N 46°20' W 001°58'0 0.0
2017-Nov-10 19:00N 46°20' W 001°58'0 0.0
2017-Nov-10 18:30N 46°20' W 001°58'0 0.0
2017-Nov-10 18:00N 46°20' W 001°58'0 0.0
2017-Nov-10 17:30N 46°20' W 001°58'0 0.0
2017-Nov-10 17:00N 46°20' W 001°58'0 0.0
2017-Nov-10 16:30N 46°20' W 001°58'0 0.0
2017-Nov-10 16:00N 46°20' W 001°58'0 0.0
2017-Nov-10 15:30N 46°20' W 001°58'0 0.0
2017-Nov-10 15:00N 46°20' W 001°58'1 1.2
2017-Nov-10 14:30N 46°20' W 001°57'4 7.4
2017-Nov-10 14:00N 46°18' W 001°53'3 5.0
2017-Nov-10 13:30N 46°17' W 001°56'2 3.8
2017-Nov-10 12:54N 46°19' W 001°59'2 2.9
2017-Nov-10 12:22N 46°20' W 001°60'1 1.0
2017-Nov-10 11:50N 46°20' W 001°59'2 5.7
2017-Nov-10 11:30N 46°18' W 001°57'3 4.6
2017-Nov-10 10:54N 46°21' W 001°55'2 5.2
2017-Nov-10 10:28N 46°22' W 001°53'1 1.5
2017-Nov-10 10:00N 46°21' W 001°52'1 2.0
2017-Nov-10 09:30N 46°20' W 001°52'2 3.9
2017-Nov-10 09:00N 46°19' W 001°53'1 1.8
2017-Nov-10 08:30N 46°18' W 001°52'0 0.3
2017-Nov-10 08:00N 46°18' W 001°53'2 3.8
2017-Nov-10 07:30N 46°19' W 001°54'1 2.0
2017-Nov-10 07:00N 46°20' W 001°53'1 2.3
2017-Nov-10 06:30N 46°20' W 001°51'1 2.9
2017-Nov-10 05:59N 46°20' W 001°53'0 0.5
2017-Nov-10 05:29N 46°19' W 001°53'1 2.1
2017-Nov-10 05:00N 46°20' W 001°52'1 1.9
2017-Nov-10 04:31N 46°20' W 001°51'1 1.2
2017-Nov-10 04:00N 46°20' W 001°52'1 2.9
2017-Nov-10 03:30N 46°20' W 001°54'1 2.9
2017-Nov-10 03:00N 46°21' W 001°52'0 0.6
2017-Nov-10 02:30N 46°21' W 001°52'2 3.1
2017-Nov-10 02:00N 46°20' W 001°55'1 2.7
2017-Nov-10 01:30N 46°21' W 001°53'1 2.1
2017-Nov-10 01:00N 46°20' W 001°54'1 2.2
2017-Nov-10 00:30N 46°20' W 001°56'0 0.1
2017-Nov-09 23:52N 46°20' W 001°56'0 0.2
2017-Nov-09 23:16N 46°20' W 001°55'0 0.2
2017-Nov-09 23:00N 46°20' W 001°55'0 0.1
2017-Nov-09 22:30N 46°20' W 001°55'0 0.2
2017-Nov-09 22:00N 46°20' W 001°55'0 0.0
2017-Nov-09 21:26N 46°20' W 001°55'0 0.0
2017-Nov-09 21:00N 46°20' W 001°55'0 0.0
2017-Nov-09 20:30N 46°20' W 001°55'0 0.0
2017-Nov-09 20:00N 46°20' W 001°55'0 0.0
2017-Nov-09 19:30N 46°20' W 001°55'0 0.0
2017-Nov-09 19:00N 46°20' W 001°55'0 0.0
2017-Nov-09 18:29N 46°20' W 001°55'0 0.0
2017-Nov-09 16:58N 46°20' W 001°55'0 0.0
2017-Nov-09 16:30N 46°20' W 001°55'0 0.0
2017-Nov-09 16:00N 46°20' W 001°55'0 0.0
2017-Nov-09 15:29N 46°20' W 001°55'0 0.1
2017-Nov-09 14:58N 46°20' W 001°55'0 0.2
2017-Nov-09 14:30N 46°20' W 001°55'3 5.6
2017-Nov-09 13:59N 46°18' W 001°52'3 5.1
2017-Nov-09 13:29N 46°20' W 001°51'0 0.5
2017-Nov-09 13:00N 46°20' W 001°52'2 3.2
2017-Nov-09 12:26N 46°20' W 001°54'1 3.4
2017-Nov-09 12:00N 46°21' W 001°53'0 0.8
2017-Nov-09 11:30N 46°21' W 001°52'4 7.8
2017-Nov-09 11:00N 46°24' W 001°56'510.1
2017-Nov-09 10:30N 46°28' W 002°01'510.3
2017-Nov-09 10:00N 46°32' W 002°05'5 0.3
2017-Nov-08 13:50N 46°37' W 002°06'2 5.9
2017-Nov-08 13:29N 46°36' W 002°04'3 6.0
2017-Nov-08 13:00N 46°34' W 002°01'3 6.0
2017-Nov-08 12:30N 46°32' W 001°57'3 6.1
2017-Nov-08 12:00N 46°30' W 001°54'3 7.0
2017-Nov-08 11:30N 46°28' W 001°49'2 3.8
2017-Nov-08 11:00N 46°30' W 001°47'0 0.1
2017-Nov-08 10:30N 46°30' W 001°47'0 0.0
2017-Nov-08 10:00N 46°30' W 001°47'0 0.0
2017-Nov-08 09:30N 46°30' W 001°47'0 0.0
2017-Nov-08 09:00N 46°30' W 001°47'0 0.0
2017-Nov-08 08:31N 46°30' W 001°47'  
Track history (hours):
 
Tides and Currents Weather Stations Pressure Air Temp Water Temp Dewpoint Dewpoint Depression Visibility Wind Speed Wind Dir Waves Ship Positions

F/V Armandeche

Last reported at 2017-Nov-18 06:26 UTC. Time now 2017-Nov-18 06:49 UTC.
Position N 46°18' W 001°59'.

Length 18 m.

Type: Fishing. MMSI: 228184000.

Date/timePositionNaut miles runAvg speedWind from/ knotsBaromVisibWave heightAir tempDewpointWater temp
2017-Nov-18 06:26N 46°18' W 001°59'0 0.6
2017-Nov-18 05:43N 46°19' W 001°59'1 3.5
2017-Nov-18 05:27N 46°20' W 002°00'1 2.0
2017-Nov-18 04:51N 46°19' W 001°59'1 0.8
2017-Nov-18 04:02N 46°19' W 001°59'1 3.6
2017-Nov-18 03:49N 46°20' W 001°60'1 2.7
2017-Nov-18 03:27N 46°19' W 001°59'2 2.2
2017-Nov-18 02:29N 46°17' W 001°58'3 2.2
2017-Nov-18 01:10N 46°19' W 002°01'0 0.0
2017-Nov-18 00:56N 46°19' W 002°01'0 0.0
2017-Nov-18 00:14N 46°19' W 002°01'0 0.0
2017-Nov-17 23:53N 46°19' W 002°01'0 0.0
2017-Nov-17 23:30N 46°19' W 002°01'0 0.0
2017-Nov-17 22:10N 46°19' W 002°01'0 0.0
2017-Nov-17 22:00N 46°19' W 002°01'0 0.0
2017-Nov-17 21:20N 46°19' W 002°01'0 0.0
2017-Nov-17 20:58N 46°19' W 002°01'0 0.0
2017-Nov-17 16:09N 46°19' W 002°01'0 0.1
2017-Nov-17 15:59N 46°19' W 002°01'0 0.3
2017-Nov-17 14:46N 46°19' W 002°00'1 0.8
2017-Nov-17 13:46N 46°20' W 002°01'1 1.2
2017-Nov-17 13:20N 46°20' W 002°01'2 5.0
2017-Nov-17 12:54N 46°18' W 001°59'1 2.7
2017-Nov-17 12:28N 46°19' W 001°59'2 1.3
2017-Nov-17 11:11N 46°18' W 001°58'0 2.4
2017-Nov-17 10:59N 46°18' W 001°58'1 2.3
2017-Nov-17 10:30N 46°19' W 001°59'2 3.2
2017-Nov-17 09:58N 46°18' W 001°58'2 3.2
2017-Nov-17 09:24N 46°19' W 001°59'1 1.8
2017-Nov-17 09:00N 46°19' W 001°59'1 1.1
2017-Nov-17 08:27N 46°18' W 001°59'1 2.2
2017-Nov-17 08:00N 46°19' W 001°60'1 2.6
2017-Nov-17 07:30N 46°18' W 001°59'1 2.6
2017-Nov-17 07:00N 46°19' W 002°00'1 2.4
2017-Nov-17 06:31N 46°18' W 001°60'4 9.0
2017-Nov-17 06:00N 46°15' W 001°54'5 9.4
2017-Nov-17 05:30N 46°14' W 001°47'1 2.3
2017-Nov-17 04:59N 46°13' W 001°49'1 2.6
2017-Nov-17 04:30N 46°14' W 001°47'1 1.1
2017-Nov-17 04:00N 46°13' W 001°48'0 0.9
2017-Nov-17 03:30N 46°14' W 001°47'0 0.0
2017-Nov-17 03:00N 46°14' W 001°47'0 0.0
2017-Nov-17 02:30N 46°14' W 001°47'0 0.1
2017-Nov-17 02:00N 46°14' W 001°47'0 0.1
2017-Nov-17 01:30N 46°14' W 001°47'0 0.0
2017-Nov-17 01:00N 46°14' W 001°47'0 0.0
2017-Nov-17 00:30N 46°14' W 001°47'0 0.2
2017-Nov-17 00:00N 46°14' W 001°47'0 0.1
2017-Nov-16 23:30N 46°14' W 001°47'0 0.0
2017-Nov-16 23:00N 46°14' W 001°47'0 0.1
2017-Nov-16 22:30N 46°14' W 001°47'0 0.0
2017-Nov-16 22:00N 46°14' W 001°47'0 0.0
2017-Nov-16 21:31N 46°14' W 001°47'0 0.0
2017-Nov-16 21:00N 46°14' W 001°47'0 0.1
2017-Nov-16 20:23N 46°14' W 001°47'0 0.0
2017-Nov-16 19:59N 46°14' W 001°47'0 0.0
2017-Nov-16 19:30N 46°14' W 001°47'0 0.1
2017-Nov-16 19:00N 46°14' W 001°47'0 0.1
2017-Nov-16 18:30N 46°14' W 001°47'0 0.1
2017-Nov-16 17:25N 46°13' W 001°47'0 0.0
2017-Nov-16 16:58N 46°13' W 001°47'0 0.0
2017-Nov-16 16:30N 46°13' W 001°47'0 0.1
2017-Nov-16 15:59N 46°13' W 001°47'0 0.3
2017-Nov-16 15:28N 46°14' W 001°47'1 2.0
2017-Nov-16 15:00N 46°13' W 001°48'1 2.3
2017-Nov-16 14:30N 46°14' W 001°50'4 5.6
2017-Nov-16 13:48N 46°16' W 001°54'1 2.0
2017-Nov-16 13:30N 46°16' W 001°54'1 2.2
2017-Nov-16 12:56N 46°16' W 001°55'1 1.6
2017-Nov-16 12:08N 46°15' W 001°54'0 1.8
2017-Nov-16 12:00N 46°15' W 001°54'4 8.2
2017-Nov-16 11:29N 46°17' W 001°59'2 2.4
2017-Nov-16 10:50N 46°19' W 001°60'1 1.0
2017-Nov-16 10:17N 46°19' W 001°60'2 4.0
2017-Nov-16 09:53N 46°18' W 001°58'1 1.3
2017-Nov-16 09:29N 46°18' W 001°58'2 3.4
2017-Nov-16 08:57N 46°19' W 002°00'1 1.5
2017-Nov-16 08:08N 46°18' W 001°59'1 2.7
2017-Nov-16 07:50N 46°19' W 001°59'1 3.1
2017-Nov-16 07:30N 46°20' W 002°00'2 3.0
2017-Nov-16 06:59N 46°18' W 001°59'1 1.9
2017-Nov-16 06:24N 46°19' W 001°59'0 0.5
2017-Nov-16 05:59N 46°19' W 001°59'1 1.8
2017-Nov-16 05:28N 46°18' W 001°58'2 3.2
2017-Nov-16 05:00N 46°20' W 001°59'2 2.6
2017-Nov-16 04:23N 46°18' W 001°58'1 1.4
2017-Nov-16 03:54N 46°18' W 001°59'0 0.1
2017-Nov-16 03:30N 46°18' W 001°59'0 0.0
2017-Nov-16 03:00N 46°18' W 001°59'0 0.0
2017-Nov-16 02:28N 46°18' W 001°59'0 0.0
2017-Nov-16 01:59N 46°18' W 001°59'0 0.0
2017-Nov-16 01:30N 46°18' W 001°59'0 0.0
2017-Nov-16 01:00N 46°18' W 001°59'0 0.0
2017-Nov-16 00:30N 46°18' W 001°59'0 0.0
2017-Nov-16 00:00N 46°18' W 001°59'0 0.0
2017-Nov-15 23:16N 46°18' W 001°59'0 0.0
2017-Nov-15 23:00N 46°18' W 001°59'0 0.0
2017-Nov-15 22:30N 46°18' W 001°59'0 0.0
2017-Nov-15 21:58N 46°18' W 001°59'0 0.0
2017-Nov-15 21:30N 46°18' W 001°59'0 0.0
2017-Nov-15 20:50N 46°18' W 001°59'0 0.0
2017-Nov-15 20:30N 46°18' W 001°59'0 0.0
2017-Nov-15 19:45N 46°18' W 001°59'0 0.1
2017-Nov-15 19:26N 46°18' W 001°59'0 0.0
2017-Nov-15 19:00N 46°18' W 001°59'0 0.0
2017-Nov-15 18:29N 46°18' W 001°59'2 2.1
2017-Nov-15 17:41N 46°19' W 001°57'310.7
2017-Nov-15 17:27N 46°21' W 001°55'510.7
2017-Nov-15 17:00N 46°25' W 001°51'510.1
2017-Nov-15 16:30N 46°29' W 001°47'1 1.4
2017-Nov-15 16:00N 46°30' W 001°47'1 2.1
2017-Nov-15 15:30N 46°29' W 001°48'510.1
2017-Nov-15 15:00N 46°24' W 001°50'510.1
2017-Nov-15 14:30N 46°20' W 001°53'5 8.1
2017-Nov-15 13:54N 46°15' W 001°54'2 1.4
2017-Nov-15 12:49N 46°15' W 001°56'1 2.0
2017-Nov-15 12:29N 46°15' W 001°57'2 1.8
2017-Nov-15 11:29N 46°16' W 001°59'2 3.5
2017-Nov-15 10:52N 46°18' W 001°59'1 1.5
2017-Nov-15 10:26N 46°18' W 001°58'0 0.6
2017-Nov-15 09:57N 46°18' W 001°59'1 1.3
2017-Nov-15 09:29N 46°19' W 001°59'1 2.5
2017-Nov-15 08:59N 46°18' W 001°59'1 2.7
2017-Nov-15 08:30N 46°19' W 002°00'1 1.9
2017-Nov-15 08:00N 46°18' W 001°60'1 1.8
2017-Nov-15 07:21N 46°19' W 002°00'1 2.3
2017-Nov-15 07:00N 46°18' W 001°59'0 0.6
2017-Nov-15 06:26N 46°19' W 001°59'1 1.7
2017-Nov-15 06:00N 46°20' W 001°60'1 1.7
2017-Nov-15 05:23N 46°19' W 001°59'1 3.4
2017-Nov-15 05:00N 46°20' W 001°60'1 2.0
2017-Nov-15 04:29N 46°19' W 001°59'1 3.1
2017-Nov-15 04:00N 46°18' W 001°58'0 0.7
2017-Nov-15 03:28N 46°17' W 001°57'0 0.0
2017-Nov-15 03:00N 46°17' W 001°57'0 0.1
2017-Nov-15 02:25N 46°17' W 001°57'0 0.0
2017-Nov-15 00:19N 46°17' W 001°57'0 0.0
2017-Nov-14 23:50N 46°17' W 001°57'0 0.0
2017-Nov-14 23:30N 46°17' W 001°57'0 0.0
2017-Nov-14 22:42N 46°17' W 001°57'0 0.3
2017-Nov-14 22:30N 46°17' W 001°57'0 0.1
2017-Nov-14 21:59N 46°17' W 001°57'0 0.1
2017-Nov-14 21:28N 46°17' W 001°57'0 0.1
2017-Nov-14 21:00N 46°17' W 001°57'0 0.1
2017-Nov-14 20:30N 46°18' W 001°57'0 0.2
2017-Nov-14 19:56N 46°18' W 001°57'1 0.9
2017-Nov-14 18:56N 46°17' W 001°56'410.3
2017-Nov-14 18:30N 46°21' W 001°54'510.5
2017-Nov-14 18:00N 46°26' W 001°50'4 8.8
2017-Nov-14 17:30N 46°30' W 001°48'0 0.7
2017-Nov-14 17:00N 46°30' W 001°47'4 8.4
2017-Nov-14 16:30N 46°26' W 001°49'5 9.4
2017-Nov-14 16:00N 46°22' W 001°52'3 4.7
2017-Nov-14 15:25N 46°19' W 001°54'1 1.1
2017-Nov-14 14:56N 46°19' W 001°53'1 1.2
2017-Nov-14 14:30N 46°18' W 001°53'0 0.8
2017-Nov-14 14:00N 46°18' W 001°53'1 0.9
2017-Nov-14 13:26N 46°17' W 001°52'0 0.9
2017-Nov-14 12:59N 46°17' W 001°52'1 2.4
2017-Nov-14 12:30N 46°17' W 001°54'4 4.8
2017-Nov-14 11:41N 46°18' W 001°59'1 4.7
2017-Nov-14 11:26N 46°19' W 001°60'1 1.8
2017-Nov-14 10:58N 46°20' W 001°60'0 0.6
2017-Nov-14 10:29N 46°20' W 001°60'2 3.8
2017-Nov-14 10:00N 46°18' W 001°58'2 3.0
2017-Nov-14 09:30N 46°19' W 001°60'2 2.7
2017-Nov-14 08:56N 46°20' W 002°02'2 3.3
2017-Nov-14 08:20N 46°18' W 002°00'1 1.3
2017-Nov-14 07:47N 46°18' W 001°60'1 3.0
2017-Nov-14 07:24N 46°19' W 002°01'1 3.1
2017-Nov-14 06:58N 46°20' W 002°01'1 3.1
2017-Nov-14 06:29N 46°19' W 002°00'1 2.2
2017-Nov-14 05:56N 46°18' W 001°59'2 2.6
2017-Nov-14 05:20N 46°16' W 001°58'1 2.6
2017-Nov-14 04:53N 46°15' W 001°57'1 1.7
2017-Nov-14 04:13N 46°16' W 001°58'1 1.8
2017-Nov-14 03:51N 46°17' W 001°58'1 2.5
2017-Nov-14 03:20N 46°18' W 001°59'1 2.3
2017-Nov-14 03:00N 46°19' W 001°60'0 0.4
2017-Nov-14 02:27N 46°19' W 001°60'0 0.1
2017-Nov-14 02:00N 46°19' W 001°60'0 0.1
2017-Nov-14 01:29N 46°18' W 001°60'0 0.0
2017-Nov-13 23:20N 46°18' W 001°60'0 0.0
2017-Nov-13 22:47N 46°18' W 001°60'0 0.0
2017-Nov-13 22:27N 46°18' W 001°60'0 0.0
2017-Nov-13 22:00N 46°19' W 001°60'14 0.7
2017-Nov-13 02:00N 46°30' W 001°47'0 0.0
2017-Nov-13 01:30N 46°30' W 001°47'0 0.0
2017-Nov-13 01:00N 46°30' W 001°47'0 0.0
2017-Nov-13 00:30N 46°30' W 001°47'0 0.0
2017-Nov-13 00:00N 46°30' W 001°47'0 0.0
2017-Nov-12 23:30N 46°30' W 001°47'0 0.0
2017-Nov-12 23:00N 46°30' W 001°47'0 0.0
2017-Nov-12 22:30N 46°30' W 001°47'0 0.0
2017-Nov-12 22:00N 46°30' W 001°47'0 0.0
2017-Nov-12 21:30N 46°30' W 001°47'0 0.0
2017-Nov-12 21:00N 46°30' W 001°47'0 0.0
2017-Nov-12 20:30N 46°30' W 001°47'0 0.0
2017-Nov-12 20:00N 46°30' W 001°47'0 0.0
2017-Nov-12 19:30N 46°30' W 001°47'0 0.0
2017-Nov-12 19:00N 46°30' W 001°47'0 0.0
2017-Nov-12 18:30N 46°30' W 001°47'0 0.2
2017-Nov-12 18:00N 46°30' W 001°47'0 0.0
2017-Nov-12 17:30N 46°30' W 001°47'3 6.6
2017-Nov-12 17:00N 46°27' W 001°49'5 9.8
2017-Nov-12 16:30N 46°23' W 001°52'3 5.0
2017-Nov-12 16:00N 46°21' W 001°55'1 2.0
2017-Nov-12 15:30N 46°22' W 001°56'1 2.7
2017-Nov-12 14:59N 46°20' W 001°55'0 0.3
2017-Nov-12 14:30N 46°20' W 001°55'0 0.6
2017-Nov-12 14:00N 46°20' W 001°54'1 1.3
2017-Nov-12 13:30N 46°19' W 001°54'4 7.2
2017-Nov-12 12:55N 46°19' W 001°60'1 3.4
2017-Nov-12 12:29N 46°20' W 002°01'1 0.8
2017-Nov-12 11:11N 46°19' W 002°01'1 4.5
2017-Nov-12 10:55N 46°20' W 002°02'1 1.3
2017-Nov-12 10:30N 46°20' W 002°01'1 1.1
2017-Nov-12 10:01N 46°20' W 002°01'1 1.2
2017-Nov-12 09:30N 46°21' W 002°01'1 2.0
2017-Nov-12 09:00N 46°20' W 001°60'1 1.2
2017-Nov-12 08:30N 46°19' W 001°60'1 1.6
2017-Nov-12 07:59N 46°20' W 001°60'1 1.9
2017-Nov-12 07:30N 46°21' W 002°00'1 2.0
2017-Nov-12 06:59N 46°20' W 001°60'1 1.7
2017-Nov-12 06:28N 46°19' W 001°59'1 2.1
2017-Nov-12 06:00N 46°19' W 001°58'1 1.2
2017-Nov-12 05:30N 46°19' W 001°59'1 1.6
2017-Nov-12 04:59N 46°20' W 001°59'1 1.9
2017-Nov-12 04:30N 46°21' W 001°60'1 1.4
2017-Nov-12 03:58N 46°20' W 001°59'1 2.2
2017-Nov-12 03:30N 46°19' W 001°58'1 1.1
2017-Nov-12 03:00N 46°20' W 001°59'1 2.4
2017-Nov-12 02:28N 46°21' W 001°59'1 1.3
2017-Nov-12 01:57N 46°20' W 001°59'2 3.1
2017-Nov-12 01:19N 46°22' W 001°57'310.0
2017-Nov-12 01:00N 46°24' W 001°54'510.0
2017-Nov-12 00:30N 46°27' W 001°49'3 5.1
2017-Nov-12 00:01N 46°30' W 001°47'0 0.0
2017-Nov-11 23:30N 46°30' W 001°47'0 0.0
2017-Nov-11 23:00N 46°30' W 001°47'0 0.0
2017-Nov-11 22:30N 46°30' W 001°47'0 0.0
2017-Nov-11 22:00N 46°30' W 001°47'0 0.0
2017-Nov-11 21:30N 46°30' W 001°47'0 0.0
2017-Nov-11 21:00N 46°30' W 001°47'0 0.0
2017-Nov-11 20:30N 46°30' W 001°47'0 0.0
2017-Nov-11 20:00N 46°30' W 001°47'0 0.0
2017-Nov-11 19:30N 46°30' W 001°47'0 0.0
2017-Nov-11 19:00N 46°30' W 001°47'0 0.0
2017-Nov-11 18:30N 46°30' W 001°47'0 0.0
2017-Nov-11 18:00N 46°30' W 001°47'0 0.0
2017-Nov-11 17:30N 46°30' W 001°47'0 0.0
2017-Nov-11 17:00N 46°30' W 001°47'0 0.0
2017-Nov-11 16:30N 46°30' W 001°47'0 0.0
2017-Nov-11 16:00N 46°30' W 001°47'0 0.0
2017-Nov-11 15:30N 46°30' W 001°47'0 0.0
2017-Nov-11 15:00N 46°30' W 001°47'0 0.0
2017-Nov-11 14:30N 46°30' W 001°47'1 2.9
2017-Nov-11 14:00N 46°28' W 001°47'510.1
2017-Nov-11 13:30N 46°25' W 001°52'4 7.8
2017-Nov-11 12:59N 46°21' W 001°55'2 4.3
2017-Nov-11 12:30N 46°19' W 001°53'0 0.6
2017-Nov-11 12:00N 46°19' W 001°53'1 1.1
2017-Nov-11 11:30N 46°19' W 001°53'1 2.0
2017-Nov-11 11:00N 46°18' W 001°52'1 1.8
2017-Nov-11 10:28N 46°17' W 001°52'510.4
2017-Nov-11 09:59N 46°19' W 001°58'2 3.1
2017-Nov-11 09:30N 46°20' W 002°00'0 0.7
2017-Nov-11 08:59N 46°20' W 001°60'0 1.0
2017-Nov-11 08:30N 46°20' W 001°59'1 2.1
2017-Nov-11 08:00N 46°19' W 001°59'1 2.6
2017-Nov-11 07:30N 46°18' W 001°58'1 2.2
2017-Nov-11 07:01N 46°18' W 001°59'1 2.1
2017-Nov-11 06:28N 46°19' W 001°60'1 2.0
2017-Nov-11 06:00N 46°19' W 001°59'1 1.2
2017-Nov-11 05:24N 46°19' W 001°58'1 2.0
2017-Nov-11 04:55N 46°20' W 001°59'1 2.2
2017-Nov-11 04:29N 46°20' W 001°60'1 2.7
2017-Nov-11 04:00N 46°19' W 001°59'1 1.5
2017-Nov-11 03:24N 46°18' W 001°58'1 2.7
2017-Nov-11 03:00N 46°19' W 001°59'0 0.5
2017-Nov-11 02:31N 46°19' W 001°58'1 2.0
2017-Nov-11 01:58N 46°18' W 001°57'2 3.3
2017-Nov-11 01:30N 46°20' W 001°58'0 0.7
2017-Nov-11 01:00N 46°20' W 001°58'0 0.0
2017-Nov-11 00:29N 46°20' W 001°58'0 0.0
2017-Nov-10 23:59N 46°20' W 001°58'0 0.0
2017-Nov-10 23:30N 46°20' W 001°58'0 0.0
2017-Nov-10 22:59N 46°20' W 001°58'0 0.0
2017-Nov-10 22:30N 46°20' W 001°58'0 0.0
2017-Nov-10 22:00N 46°20' W 001°58'0 0.0
2017-Nov-10 21:30N 46°20' W 001°58'0 0.1
2017-Nov-10 21:00N 46°20' W 001°58'0 0.0
2017-Nov-10 20:30N 46°20' W 001°58'0 0.0
2017-Nov-10 20:00N 46°20' W 001°58'0 0.0
2017-Nov-10 19:30N 46°20' W 001°58'0 0.0
2017-Nov-10 19:00N 46°20' W 001°58'0 0.0
2017-Nov-10 18:30N 46°20' W 001°58'0 0.0
2017-Nov-10 18:00N 46°20' W 001°58'0 0.0
2017-Nov-10 17:30N 46°20' W 001°58'0 0.0
2017-Nov-10 17:00N 46°20' W 001°58'0 0.0
2017-Nov-10 16:30N 46°20' W 001°58'0 0.0
2017-Nov-10 16:00N 46°20' W 001°58'0 0.0
2017-Nov-10 15:30N 46°20' W 001°58'0 0.0
2017-Nov-10 15:00N 46°20' W 001°58'1 1.2
2017-Nov-10 14:30N 46°20' W 001°57'4 7.4
2017-Nov-10 14:00N 46°18' W 001°53'3 5.0
2017-Nov-10 13:30N 46°17' W 001°56'2 3.8
2017-Nov-10 12:54N 46°19' W 001°59'2 2.9
2017-Nov-10 12:22N 46°20' W 001°60'1 1.0
2017-Nov-10 11:50N 46°20' W 001°59'2 5.7
2017-Nov-10 11:30N 46°18' W 001°57'3 4.6
2017-Nov-10 10:54N 46°21' W 001°55'2 5.2
2017-Nov-10 10:28N 46°22' W 001°53'1 1.5
2017-Nov-10 10:00N 46°21' W 001°52'1 2.0
2017-Nov-10 09:30N 46°20' W 001°52'2 3.9
2017-Nov-10 09:00N 46°19' W 001°53'1 1.8
2017-Nov-10 08:30N 46°18' W 001°52'0 0.3
2017-Nov-10 08:00N 46°18' W 001°53'2 3.8
2017-Nov-10 07:30N 46°19' W 001°54'1 2.0
2017-Nov-10 07:00N 46°20' W 001°53'1 2.3
2017-Nov-10 06:30N 46°20' W 001°51'1 2.9
2017-Nov-10 05:59N 46°20' W 001°53'0 0.5
2017-Nov-10 05:29N 46°19' W 001°53'1 2.1
2017-Nov-10 05:00N 46°20' W 001°52'1 1.9
2017-Nov-10 04:31N 46°20' W 001°51'1 1.2
2017-Nov-10 04:00N 46°20' W 001°52'1 2.9
2017-Nov-10 03:30N 46°20' W 001°54'1 2.9
2017-Nov-10 03:00N 46°21' W 001°52'0 0.6
2017-Nov-10 02:30N 46°21' W 001°52'2 3.1
2017-Nov-10 02:00N 46°20' W 001°55'1 2.7
2017-Nov-10 01:30N 46°21' W 001°53'1 2.1
2017-Nov-10 01:00N 46°20' W 001°54'1 2.2
2017-Nov-10 00:30N 46°20' W 001°56'0 0.1
2017-Nov-09 23:52N 46°20' W 001°56'0 0.2
2017-Nov-09 23:16N 46°20' W 001°55'0 0.2
2017-Nov-09 23:00N 46°20' W 001°55'0 0.1
2017-Nov-09 22:30N 46°20' W 001°55'0 0.2
2017-Nov-09 22:00N 46°20' W 001°55'0 0.0
2017-Nov-09 21:26N 46°20' W 001°55'0 0.0
2017-Nov-09 21:00N 46°20' W 001°55'0 0.0
2017-Nov-09 20:30N 46°20' W 001°55'0 0.0
2017-Nov-09 20:00N 46°20' W 001°55'0 0.0
2017-Nov-09 19:30N 46°20' W 001°55'0 0.0
2017-Nov-09 19:00N 46°20' W 001°55'0 0.0
2017-Nov-09 18:29N 46°20' W 001°55'0 0.0
2017-Nov-09 16:58N 46°20' W 001°55'0 0.0
2017-Nov-09 16:30N 46°20' W 001°55'0 0.0
2017-Nov-09 16:00N 46°20' W 001°55'0 0.0
2017-Nov-09 15:29N 46°20' W 001°55'0 0.1
2017-Nov-09 14:58N 46°20' W 001°55'0 0.2
2017-Nov-09 14:30N 46°20' W 001°55'3 5.6
2017-Nov-09 13:59N 46°18' W 001°52'3 5.1
2017-Nov-09 13:29N 46°20' W 001°51'0 0.5
2017-Nov-09 13:00N 46°20' W 001°52'2 3.2
2017-Nov-09 12:26N 46°20' W 001°54'1 3.4
2017-Nov-09 12:00N 46°21' W 001°53'0 0.8
2017-Nov-09 11:30N 46°21' W 001°52'4 7.8
2017-Nov-09 11:00N 46°24' W 001°56'510.1
2017-Nov-09 10:30N 46°28' W 002°01'510.3
2017-Nov-09 10:00N 46°32' W 002°05'5 0.3
2017-Nov-08 13:50N 46°37' W 002°06'2 5.9
2017-Nov-08 13:29N 46°36' W 002°04'3 6.0
2017-Nov-08 13:00N 46°34' W 002°01'3 6.0
2017-Nov-08 12:30N 46°32' W 001°57'3 6.1
2017-Nov-08 12:00N 46°30' W 001°54'3 7.0
2017-Nov-08 11:30N 46°28' W 001°49'2 3.8
2017-Nov-08 11:00N 46°30' W 001°47'0 0.1
2017-Nov-08 10:30N 46°30' W 001°47'0 0.0
2017-Nov-08 10:00N 46°30' W 001°47'0 0.0
2017-Nov-08 09:30N 46°30' W 001°47'0 0.0
2017-Nov-08 09:00N 46°30' W 001°47'0 0.0
2017-Nov-08 08:31N 46°30' W 001°47'  

Dump ship's entire track history